createdAt,value
2023-02-13T00:04:58.652Z,97.80
2023-02-13T00:10:03.124Z,110.70
2023-02-13T00:20:25.919Z,109.60
2023-02-13T00:25:33.585Z,86.60
2023-02-13T00:30:40.989Z,129.60
2023-02-13T00:35:49.083Z,87.90
2023-02-13T00:40:57.516Z,100.20
2023-02-13T00:46:05.969Z,110.30
2023-02-13T00:51:14.306Z,129.90
2023-02-13T00:56:22.977Z,130.10
2023-02-13T01:01:30.695Z,93.60
2023-02-13T01:06:39.202Z,142.80
2023-02-13T01:11:46.919Z,114.60
2023-02-13T01:16:56.078Z,127.50
2023-02-13T01:22:03.492Z,114.20
2023-02-13T01:27:11.183Z,107.00
2023-02-13T01:32:19.181Z,153.60
2023-02-13T01:37:27.023Z,149.20
2023-02-13T01:42:36.160Z,143.60
2023-02-13T01:47:46.843Z,140.90
2023-02-13T01:53:01.410Z,138.80
2023-02-13T01:58:13.846Z,132.70
2023-02-13T02:03:26.548Z,121.30
2023-02-13T02:08:36.605Z,110.50
2023-02-13T02:13:44.169Z,101.40
2023-02-13T02:18:52.355Z,131.50
2023-02-13T02:24:26.822Z,116.10
2023-02-13T02:30:03.822Z,132.40
2023-02-13T02:35:25.214Z,131.90
2023-02-13T02:40:39.540Z,128.00
2023-02-13T02:45:55.097Z,111.30
2023-02-13T02:51:09.816Z,132.50
2023-02-13T02:56:24.838Z,156.00
2023-02-13T03:01:52.729Z,151.00
2023-02-13T03:07:06.276Z,150.10
2023-02-13T03:12:36.292Z,158.30
2023-02-13T03:18:02.228Z,136.40
2023-02-13T03:23:18.977Z,86.60
2023-02-13T03:28:53.124Z,71.90
2023-02-13T03:34:06.202Z,100.30
2023-02-13T03:39:21.197Z,90.80
2023-02-13T03:44:34.902Z,110.40
2023-02-13T03:50:04.545Z,92.10
2023-02-13T03:55:33.313Z,61.00
2023-02-13T04:00:46.447Z,54.50
2023-02-13T04:05:57.935Z,71.80
2023-02-13T04:11:15.109Z,98.40
2023-02-13T04:16:29.552Z,69.70
2023-02-13T04:21:40.560Z,76.60
2023-02-13T04:26:50.294Z,105.50
2023-02-13T04:31:59.796Z,77.90
2023-02-13T04:37:07.765Z,76.20
2023-02-13T04:42:15.311Z,82.10
2023-02-13T04:47:23.756Z,78.60
2023-02-13T04:52:32.859Z,64.90
2023-02-13T04:57:40.460Z,56.20
2023-02-13T05:02:48.172Z,79.90
2023-02-13T05:07:56.001Z,51.10
2023-02-13T05:13:04.210Z,80.50
2023-02-13T05:18:11.748Z,65.50
2023-02-13T05:23:25.537Z,82.20
2023-02-13T05:28:50.411Z,90.30
2023-02-13T05:33:59.037Z,79.50
2023-02-13T05:39:07.183Z,78.50
2023-02-13T05:44:17.099Z,83.40
2023-02-13T05:49:24.952Z,86.30
2023-02-13T05:54:32.931Z,94.20
2023-02-13T05:59:40.385Z,103.00
2023-02-13T06:04:47.724Z,82.70
2023-02-13T06:09:55.731Z,97.80
2023-02-13T06:15:03.522Z,103.00
2023-02-13T06:20:13.447Z,91.90
2023-02-13T06:25:21.610Z,96.60
2023-02-13T06:30:29.382Z,76.30
2023-02-13T06:35:36.832Z,64.90
2023-02-13T06:40:44.864Z,75.40
2023-02-13T06:45:54.517Z,47.40
2023-02-13T06:51:03.066Z,67.20
2023-02-13T06:56:11.693Z,103.30
2023-02-13T07:01:18.959Z,98.50
2023-02-13T07:06:27.174Z,80.70
2023-02-13T07:11:34.565Z,79.70
2023-02-13T07:16:42.200Z,59.90
2023-02-13T07:21:49.796Z,109.60
2023-02-13T07:26:57.205Z,104.40
2023-02-13T07:32:09.380Z,96.60
2023-02-13T07:37:16.702Z,99.20
2023-02-13T07:42:24.301Z,107.30
2023-02-13T07:47:32.433Z,98.60
2023-02-13T07:52:40.068Z,85.90
2023-02-13T07:57:47.539Z,92.00
2023-02-13T08:08:02.074Z,75.10
2023-02-13T08:13:10.847Z,84.40
2023-02-13T08:18:20.155Z,80.60
2023-02-13T08:23:27.984Z,104.60
2023-02-13T08:28:35.428Z,75.30
2023-02-13T08:33:42.984Z,80.60
2023-02-13T08:38:50.806Z,65.90
2023-02-13T08:44:00.069Z,46.70
2023-02-13T08:49:09.254Z,44.10
2023-02-13T08:54:16.972Z,69.50
2023-02-13T08:59:24.787Z,76.80
2023-02-13T09:04:32.091Z,55.10
2023-02-13T09:09:39.498Z,37.60
2023-02-13T09:14:47.014Z,81.80
2023-02-13T09:19:55.221Z,76.20
2023-02-13T09:25:04.563Z,52.00
2023-02-13T09:30:23.022Z,82.00
2023-02-13T09:35:30.611Z,82.00
2023-02-13T09:40:44.738Z,63.80
2023-02-13T09:45:55.644Z,60.60
2023-02-13T09:51:06.479Z,50.30
2023-02-13T09:56:22.002Z,49.30
2023-02-13T10:01:35.546Z,72.50
2023-02-13T10:06:51.088Z,44.10
2023-02-13T10:12:34.963Z,60.30
2023-02-13T10:17:45.875Z,53.20
2023-02-13T10:22:58.082Z,58.70
2023-02-13T10:28:13.719Z,65.10
2023-02-13T10:33:24.966Z,52.00
2023-02-13T10:38:35.094Z,38.90
2023-02-13T10:43:55.964Z,51.50
2023-02-13T10:49:21.654Z,56.90
2023-02-13T10:54:49.687Z,54.10
2023-02-13T11:00:08.251Z,40.30
2023-02-13T11:05:23.500Z,44.20
2023-02-13T11:10:31.476Z,46.10
2023-02-13T11:15:40.366Z,36.40
2023-02-13T11:20:50.034Z,40.80
2023-02-13T11:26:01.854Z,40.90
2023-02-13T11:31:21.136Z,26.90
2023-02-13T11:36:31.337Z,35.70
2023-02-13T11:41:45.412Z,33.40
2023-02-13T11:46:55.040Z,34.20
2023-02-13T11:52:04.224Z,42.10
2023-02-13T11:57:23.565Z,26.30
2023-02-13T12:02:31.907Z,35.20
2023-02-13T12:07:39.658Z,28.80
2023-02-13T12:12:53.519Z,26.60
2023-02-13T12:19:31.337Z,24.90
2023-02-13T12:24:58.043Z,22.60
2023-02-13T12:30:20.141Z,23.50
2023-02-13T12:35:44.608Z,22.20
2023-02-13T12:41:13.814Z,21.20
2023-02-13T12:46:30.592Z,19.70
2023-02-13T12:51:49.707Z,22.60
2023-02-13T12:57:26.144Z,24.30
2023-02-13T13:03:17.369Z,17.70
2023-02-13T13:08:45.922Z,21.10
2023-02-13T13:14:03.599Z,18.30
2023-02-13T13:19:24.403Z,20.00
2023-02-13T13:24:53.690Z,25.00
2023-02-13T13:30:04.165Z,14.40
2023-02-13T13:35:16.484Z,22.90
2023-02-13T13:40:35.775Z,20.00
2023-02-13T13:45:48.561Z,19.30
2023-02-13T13:50:56.971Z,24.20
2023-02-13T13:56:10.527Z,29.40
2023-02-13T14:01:27.166Z,24.20
2023-02-13T14:07:23.972Z,26.90
2023-02-13T14:13:05.761Z,20.00
2023-02-13T14:18:54.927Z,32.50
2023-02-13T14:24:13.953Z,23.20
2023-02-13T14:29:34.070Z,21.00
2023-02-13T14:34:43.578Z,25.90
2023-02-13T14:40:32.944Z,31.40
2023-02-13T14:45:51.996Z,26.40
2023-02-13T14:51:00.915Z,19.00
2023-02-13T14:56:13.751Z,32.50
2023-02-13T15:01:30.644Z,28.50
2023-02-13T15:06:41.998Z,29.50
2023-02-13T15:11:49.319Z,25.00
2023-02-13T15:19:51.698Z,34.10
2023-02-13T15:25:00.347Z,34.00
2023-02-13T15:30:22.703Z,18.70
2023-02-13T15:35:32.900Z,33.40
2023-02-13T15:40:45.568Z,34.00
2023-02-13T15:45:53.035Z,31.80
2023-02-13T15:51:01.838Z,39.70
2023-02-13T15:56:15.265Z,31.20
2023-02-13T16:01:23.207Z,33.90
2023-02-13T16:06:31.431Z,38.50
2023-02-13T16:11:41.176Z,22.30
2023-02-13T16:16:53.654Z,28.90
2023-02-13T16:22:04.512Z,24.20
2023-02-13T16:27:19.339Z,10.60
2023-02-13T16:32:31.809Z,18.30
2023-02-13T16:37:51.178Z,15.70
2023-02-13T16:43:36.205Z,13.50
2023-02-13T16:48:44.234Z,17.50
2023-02-13T16:54:00.686Z,16.40
2023-02-13T16:59:26.014Z,13.20
2023-02-13T17:04:33.687Z,16.80
2023-02-13T17:09:41.085Z,17.80
2023-02-13T17:14:49.743Z,18.90
2023-02-13T17:19:57.371Z,12.80
2023-02-13T17:25:07.772Z,17.40
2023-02-13T17:30:19.889Z,12.00
2023-02-13T17:35:27.249Z,16.10
2023-02-13T17:40:35.163Z,17.00
2023-02-13T17:45:42.788Z,23.20
2023-02-13T17:50:50.713Z,15.20
2023-02-13T17:55:59.048Z,25.60
2023-02-13T18:01:06.722Z,33.20
2023-02-13T18:06:16.086Z,25.60
2023-02-13T18:11:23.746Z,30.20
2023-02-13T18:16:32.351Z,21.40
2023-02-13T18:21:39.830Z,19.90
2023-02-13T18:26:47.806Z,25.40
2023-02-13T18:31:57.180Z,26.40
2023-02-13T18:37:05.033Z,21.90
2023-02-13T18:42:13.680Z,18.10
2023-02-13T18:47:21.664Z,27.10
2023-02-13T18:52:29.298Z,24.10
2023-02-13T19:02:42.547Z,22.30
2023-02-13T19:07:50.271Z,26.90
2023-02-13T19:12:57.615Z,36.70
2023-02-13T19:21:07.221Z,31.30
2023-02-13T19:26:15.196Z,33.50
2023-02-13T19:31:21.272Z,37.00
2023-02-13T19:36:28.046Z,35.70
2023-02-13T19:41:33.079Z,31.40
2023-02-13T19:46:37.890Z,23.90
2023-02-13T19:51:45.916Z,26.80
2023-02-13T19:56:50.034Z,38.60
2023-02-13T20:01:54.188Z,30.00
2023-02-13T20:06:58.826Z,29.50
2023-02-13T20:12:02.840Z,25.60
2023-02-13T20:17:06.793Z,31.40
2023-02-13T20:22:12.837Z,32.50
2023-02-13T20:27:16.869Z,32.80
2023-02-13T20:32:21.139Z,31.60
2023-02-13T20:37:25.403Z,32.50
2023-02-13T20:42:31.853Z,38.30
2023-02-13T20:47:35.799Z,20.90
2023-02-13T20:52:39.933Z,31.70
2023-02-13T20:57:44.115Z,32.00
2023-02-13T21:02:48.431Z,34.70
2023-02-13T21:07:53.207Z,28.30
2023-02-13T21:12:57.828Z,18.80
2023-02-13T21:18:03.058Z,35.20
2023-02-13T21:23:07.388Z,29.90
2023-02-13T21:28:11.647Z,33.70
2023-02-13T21:33:15.624Z,30.00
2023-02-13T21:38:20.142Z,27.00
2023-02-13T21:43:24.856Z,36.80
2023-02-13T21:48:29.284Z,33.20
2023-02-13T21:53:33.645Z,38.30
2023-02-13T21:58:39.516Z,40.90
2023-02-13T22:03:44.396Z,36.20
2023-02-13T22:08:49.260Z,42.70
2023-02-13T22:13:56.656Z,41.10
2023-02-13T22:19:01.380Z,44.30
2023-02-13T22:24:06.467Z,37.90
2023-02-13T22:29:12.912Z,41.70
2023-02-13T22:34:17.036Z,29.50
2023-02-13T22:39:21.201Z,36.20
2023-02-13T22:44:25.431Z,42.50
2023-02-13T22:49:29.432Z,34.30
2023-02-13T22:54:33.696Z,42.20
2023-02-13T22:59:40.071Z,43.90
2023-02-13T23:04:44.095Z,45.40
2023-02-13T23:09:48.540Z,51.40
2023-02-13T23:14:53.621Z,42.00
2023-02-13T23:19:57.367Z,43.00
2023-02-13T23:25:01.850Z,29.00
2023-02-13T23:30:08.154Z,40.90
2023-02-13T23:35:12.185Z,56.10
2023-02-13T23:40:17.999Z,42.10
2023-02-13T23:45:22.744Z,39.90
2023-02-13T23:50:28.629Z,37.20
2023-02-13T23:55:33.162Z,28.10
